createdAt,value
2023-02-27T00:02:32.090Z,2.65
2023-02-27T00:16:15.461Z,2.88
2023-02-27T00:27:16.671Z,3.75
2023-02-27T04:25:33.036Z,3.50
2023-02-27T05:33:47.823Z,4.30
2023-02-27T07:01:03.875Z,12.73
2023-02-27T07:03:40.248Z,8.50
2023-02-27T07:07:36.418Z,9.70
2023-02-27T07:09:42.692Z,12.43
2023-02-27T07:12:16.115Z,6.38
2023-02-27T07:14:47.418Z,12.75
2023-02-27T07:17:19.032Z,16.17
2023-02-27T07:19:52.197Z,12.57
2023-02-27T07:22:20.805Z,13.43
2023-02-27T07:24:49.209Z,14.32
2023-02-27T07:27:20.822Z,12.05
2023-02-27T07:29:49.466Z,14.13
2023-02-27T07:32:18.383Z,12.57
2023-02-27T07:34:46.924Z,15.07
2023-02-27T07:37:16.886Z,13.48
2023-02-27T07:39:45.980Z,10.35
2023-02-27T07:42:17.654Z,8.43
2023-02-27T07:44:46.321Z,13.70
2023-02-27T07:47:14.604Z,9.05
2023-02-27T07:49:42.856Z,9.20
2023-02-27T07:52:11.505Z,9.98
2023-02-27T07:54:41.282Z,11.82
2023-02-27T07:57:09.523Z,10.85
2023-02-27T07:59:37.857Z,7.65
2023-02-27T08:02:06.441Z,10.07
2023-02-27T08:04:34.825Z,6.50
2023-02-27T08:07:06.253Z,5.18
2023-02-27T08:09:34.551Z,4.43
2023-02-27T08:12:04.744Z,6.07
2023-02-27T08:14:33.059Z,3.55
2023-02-27T08:17:02.302Z,4.45
2023-02-27T08:19:31.057Z,5.15
2023-02-27T08:22:00.848Z,4.00
2023-02-27T08:24:29.320Z,9.10
2023-02-27T08:26:57.620Z,6.82
2023-02-27T08:29:28.288Z,3.47
2023-02-27T08:31:57.158Z,4.35
2023-02-27T08:37:30.416Z,4.35
2023-02-27T08:40:01.010Z,28.08
2023-02-27T08:42:29.606Z,4.70
2023-02-27T08:44:59.598Z,4.00
2023-02-27T08:47:30.033Z,13.18
2023-02-27T09:18:18.286Z,5.15
2023-02-27T09:20:46.807Z,5.25
2023-02-27T09:23:17.051Z,5.30
2023-02-27T09:25:47.844Z,3.20
2023-02-27T09:28:18.717Z,5.57
2023-02-27T09:30:47.232Z,3.80
2023-02-27T09:33:17.233Z,5.13
2023-02-27T09:35:45.787Z,5.85
2023-02-27T09:38:15.220Z,3.35
2023-02-27T09:40:45.971Z,7.72
2023-02-27T09:43:20.014Z,11.95
2023-02-27T09:45:51.343Z,7.32
2023-02-27T09:48:31.742Z,13.25
2023-02-27T09:51:01.072Z,9.07
2023-02-27T09:53:35.956Z,3.50
2023-02-27T09:56:09.312Z,3.25
2023-02-27T09:58:47.136Z,4.03
2023-02-27T10:01:20.520Z,3.63
2023-02-27T10:04:24.404Z,6.65
2023-02-27T10:06:59.676Z,3.58
2023-02-27T10:09:38.765Z,3.15
2023-02-27T10:12:30.750Z,9.50
2023-02-27T10:15:06.004Z,2.97
2023-02-27T10:17:40.890Z,4.30
2023-02-27T10:20:25.689Z,3.38
2023-02-27T10:22:58.135Z,3.25
2023-02-27T10:25:31.819Z,2.85
2023-02-27T10:28:17.149Z,2.60
2023-02-27T10:30:49.205Z,4.18
2023-02-27T10:33:26.746Z,6.57
2023-02-27T10:35:56.459Z,2.90
2023-02-27T10:38:33.051Z,4.10
2023-02-27T10:41:03.069Z,4.53
2023-02-27T10:43:32.327Z,2.60
2023-02-27T10:46:03.960Z,4.70
2023-02-27T10:48:47.466Z,4.82
2023-02-27T10:51:51.695Z,3.58
2023-02-27T10:54:37.641Z,6.90
2023-02-27T11:00:54.573Z,2.85
2023-02-27T11:03:28.863Z,3.00
2023-02-27T11:05:59.372Z,2.65
2023-02-27T11:08:31.300Z,2.75
2023-02-27T11:11:04.192Z,2.25
2023-02-27T11:13:34.596Z,2.90
2023-02-27T11:16:09.755Z,3.33
2023-02-27T11:18:40.073Z,3.28
2023-02-27T11:21:20.100Z,3.80
2023-02-27T11:23:58.829Z,2.22
2023-02-27T11:26:37.351Z,2.90
2023-02-27T11:29:09.468Z,2.40
2023-02-27T11:31:39.348Z,2.05
2023-02-27T11:34:08.702Z,2.88
2023-02-27T11:36:42.950Z,3.42
2023-02-27T11:39:24.032Z,3.30
2023-02-27T11:41:54.310Z,7.40
2023-02-27T11:44:49.731Z,3.53
2023-02-27T11:47:24.064Z,2.15
2023-02-27T11:50:10.047Z,2.10
2023-02-27T11:52:45.880Z,1.77
2023-02-27T11:55:18.155Z,8.73
2023-02-27T11:57:50.379Z,4.68
2023-02-27T12:00:22.015Z,2.80
2023-02-27T12:03:00.085Z,1.98
2023-02-27T12:05:32.535Z,3.47
2023-02-27T12:08:05.713Z,2.28
2023-02-27T12:10:43.749Z,3.53
2023-02-27T12:13:18.915Z,3.33
2023-02-27T12:15:51.682Z,4.85
2023-02-27T12:18:24.994Z,3.30
2023-02-27T12:20:58.312Z,4.50
2023-02-27T12:23:35.038Z,2.58
2023-02-27T12:26:05.705Z,1.55
2023-02-27T12:28:52.246Z,1.70
2023-02-27T12:31:39.897Z,3.58
2023-02-27T12:34:18.128Z,8.07
2023-02-27T12:36:48.750Z,2.70
2023-02-27T12:39:20.703Z,5.10
2023-02-27T12:42:17.237Z,6.20
2023-02-27T12:45:01.400Z,4.30
2023-02-27T12:47:39.912Z,4.70
2023-02-27T12:50:13.171Z,2.03
2023-02-27T12:52:55.669Z,2.83
2023-02-27T12:55:28.373Z,3.13
2023-02-27T12:58:26.514Z,7.28
2023-02-27T13:01:01.960Z,4.00
2023-02-27T13:03:36.559Z,2.40
2023-02-27T13:06:13.984Z,3.75
2023-02-27T13:09:21.252Z,4.00
2023-02-27T13:11:58.700Z,12.40
2023-02-27T13:14:36.054Z,2.53
2023-02-27T13:17:19.530Z,2.65
2023-02-27T13:19:53.865Z,2.30
2023-02-27T13:22:31.526Z,2.78
2023-02-27T13:25:03.730Z,5.35
2023-02-27T13:27:35.895Z,2.50
2023-02-27T13:30:15.129Z,2.35
2023-02-27T13:32:51.348Z,2.05
2023-02-27T13:35:29.503Z,2.38
2023-02-27T13:38:01.645Z,2.10
2023-02-27T13:40:35.759Z,3.10
2023-02-27T13:43:07.625Z,2.50
2023-02-27T13:45:54.728Z,2.00
2023-02-27T13:48:41.222Z,2.33
2023-02-27T13:51:13.070Z,1.48
2023-02-27T13:53:41.361Z,3.05
2023-02-27T13:56:26.657Z,4.50
2023-02-27T13:58:56.966Z,1.95
2023-02-27T14:01:29.607Z,2.92
2023-02-27T14:04:05.351Z,2.67
2023-02-27T14:06:33.757Z,1.83
2023-02-27T14:09:14.451Z,4.32
2023-02-27T14:11:54.394Z,2.20
2023-02-27T14:14:45.986Z,3.72
2023-02-27T14:17:15.766Z,2.47
2023-02-27T14:19:59.271Z,2.22
2023-02-27T14:22:41.198Z,2.20
2023-02-27T14:25:18.573Z,2.55
2023-02-27T14:27:52.087Z,2.10
2023-02-27T14:30:48.035Z,2.83
2023-02-27T14:33:39.715Z,6.18
2023-02-27T14:36:18.214Z,1.10
2023-02-27T14:38:49.389Z,1.75
2023-02-27T14:41:34.166Z,1.40
2023-02-27T14:44:02.673Z,1.00
2023-02-27T14:46:33.419Z,0.90
2023-02-27T14:49:07.139Z,3.83
2023-02-27T14:51:38.751Z,4.88
2023-02-27T14:54:13.968Z,10.35
2023-02-27T14:56:43.044Z,3.78
2023-02-27T14:59:25.455Z,5.30
2023-02-27T15:01:54.813Z,2.97
2023-02-27T15:04:27.366Z,4.70
2023-02-27T15:06:58.377Z,1.55
2023-02-27T15:09:38.424Z,4.85
2023-02-27T15:12:07.101Z,3.10
2023-02-27T15:14:38.222Z,6.63
2023-02-27T15:17:16.774Z,4.60
2023-02-27T15:19:49.135Z,6.95
2023-02-27T15:22:37.581Z,2.55
2023-02-27T15:25:08.100Z,3.60
2023-02-27T15:27:38.249Z,3.95
2023-02-27T15:30:08.220Z,1.70
2023-02-27T15:32:39.835Z,3.38
2023-02-27T15:35:16.413Z,4.38
2023-02-27T15:37:53.025Z,3.45
2023-02-27T15:40:24.845Z,2.90
2023-02-27T15:42:54.101Z,3.53
2023-02-27T15:45:25.363Z,5.57
2023-02-27T15:47:53.994Z,4.18
2023-02-27T15:50:28.782Z,7.45
2023-02-27T15:53:09.939Z,5.30
2023-02-27T15:55:43.117Z,5.40
2023-02-27T15:58:24.366Z,3.42
2023-02-27T16:01:00.647Z,4.82
2023-02-27T16:03:35.326Z,4.97
2023-02-27T16:06:04.417Z,2.40
2023-02-27T16:08:37.059Z,9.77
2023-02-27T16:11:05.642Z,5.03
2023-02-27T16:13:38.848Z,3.40
2023-02-27T16:16:22.736Z,1.70
2023-02-27T16:18:52.827Z,3.50
2023-02-27T16:21:25.767Z,3.47
2023-02-27T16:23:56.045Z,5.18
2023-02-27T16:26:30.873Z,2.30
2023-02-27T16:29:02.530Z,2.47
2023-02-27T16:31:33.021Z,10.50
2023-02-27T16:34:15.576Z,22.98
2023-02-27T16:36:53.529Z,25.70
2023-02-27T16:39:23.288Z,7.15
2023-02-27T16:41:53.932Z,5.45
2023-02-27T16:44:23.781Z,7.82
2023-02-27T16:47:06.744Z,18.45
2023-02-27T16:49:35.106Z,10.68
2023-02-27T16:52:05.566Z,10.95
2023-02-27T16:54:35.442Z,7.35
2023-02-27T16:57:04.710Z,3.50
2023-02-27T16:59:36.137Z,3.58
2023-02-27T17:02:09.100Z,3.63
2023-02-27T17:04:37.458Z,3.15
2023-02-27T17:07:06.996Z,5.93
2023-02-27T17:09:39.779Z,6.78
2023-02-27T17:12:08.179Z,4.03
2023-02-27T17:14:36.458Z,5.22
2023-02-27T17:17:05.130Z,2.53
2023-02-27T17:19:36.404Z,3.40
2023-02-27T17:22:04.731Z,2.67
2023-02-27T17:24:35.586Z,5.20
2023-02-27T17:27:05.434Z,4.05
2023-02-27T17:29:38.533Z,4.47
2023-02-27T17:32:07.615Z,9.13
2023-02-27T17:34:35.908Z,4.70
2023-02-27T17:37:07.549Z,4.95
2023-02-27T17:39:35.827Z,12.35
2023-02-27T17:42:05.765Z,7.25
2023-02-27T17:44:34.013Z,20.10
2023-02-27T17:47:02.273Z,69.32
2023-02-27T17:49:48.337Z,41.10
2023-02-27T17:52:17.356Z,36.72
2023-02-27T17:54:55.724Z,41.75
2023-02-27T17:57:27.163Z,33.33
2023-02-27T17:59:55.833Z,32.58
2023-02-27T18:02:25.630Z,25.10
2023-02-27T18:04:57.579Z,15.40
2023-02-27T18:07:29.240Z,14.73
2023-02-27T18:10:01.325Z,13.57
2023-02-27T18:12:34.310Z,12.27
2023-02-27T18:15:07.321Z,10.32
2023-02-27T18:17:45.039Z,7.47
2023-02-27T18:20:16.933Z,11.10
2023-02-27T18:22:45.676Z,11.88
2023-02-27T18:25:16.905Z,14.02
2023-02-27T18:27:52.770Z,8.85
2023-02-27T18:30:22.010Z,16.25
2023-02-27T18:32:52.211Z,9.15
2023-02-27T18:35:20.810Z,22.20
2023-02-27T18:37:55.365Z,16.80
2023-02-27T18:40:25.144Z,44.13
2023-02-27T18:43:10.358Z,18.75
2023-02-27T18:45:39.219Z,19.13
2023-02-27T18:48:08.406Z,32.65
2023-02-27T18:50:40.429Z,22.17
2023-02-27T18:53:19.049Z,23.98
2023-02-27T18:55:50.601Z,12.98
2023-02-27T18:58:26.043Z,17.38
2023-02-27T19:01:14.433Z,34.83
2023-02-27T19:03:42.889Z,30.05
2023-02-27T19:06:15.425Z,37.33
2023-02-27T19:08:51.220Z,19.25
2023-02-27T19:11:33.548Z,14.77
2023-02-27T19:14:09.433Z,46.97
2023-02-27T19:16:52.337Z,27.25
2023-02-27T19:19:21.283Z,27.35
2023-02-27T19:21:49.653Z,22.10
2023-02-27T19:24:23.842Z,4.57
2023-02-27T19:26:55.954Z,7.57
2023-02-27T19:29:33.599Z,14.02
2023-02-27T19:32:04.387Z,9.98
2023-02-27T19:34:40.476Z,5.03
2023-02-27T19:37:12.302Z,6.30
2023-02-27T19:39:44.540Z,9.40
2023-02-27T19:42:16.336Z,12.00
2023-02-27T19:44:56.908Z,8.20
2023-02-27T19:47:29.009Z,14.63
2023-02-27T19:50:00.628Z,36.42
2023-02-27T19:52:29.169Z,24.55
2023-02-27T19:55:03.000Z,19.67
2023-02-27T19:58:02.683Z,20.00
2023-02-27T20:00:38.202Z,14.55
2023-02-27T20:03:17.767Z,49.08
2023-02-27T20:05:54.994Z,29.77
2023-02-27T20:08:29.233Z,29.55
2023-02-27T20:11:14.766Z,19.67
2023-02-27T20:13:59.740Z,26.42
2023-02-27T20:16:38.002Z,14.10
2023-02-27T20:19:14.758Z,22.85
2023-02-27T20:21:44.990Z,20.30
2023-02-27T20:24:30.283Z,39.88
2023-02-27T20:27:03.049Z,26.13
2023-02-27T20:29:41.324Z,48.85
2023-02-27T20:32:32.545Z,33.20
2023-02-27T20:35:17.039Z,24.45
2023-02-27T20:37:48.603Z,31.20
2023-02-27T20:40:17.877Z,22.00
2023-02-27T20:42:56.898Z,21.33
2023-02-27T20:45:29.638Z,79.10
2023-02-27T20:48:02.273Z,53.30
2023-02-27T20:50:36.773Z,75.53
2023-02-27T20:53:05.317Z,83.07
2023-02-27T20:55:49.599Z,47.33
2023-02-27T20:58:18.283Z,31.75
2023-02-27T21:00:56.884Z,35.53
2023-02-27T21:03:51.548Z,52.38
2023-02-27T21:06:20.779Z,41.67
2023-02-27T21:08:55.598Z,36.22
2023-02-27T21:11:27.927Z,38.00
2023-02-27T21:14:00.042Z,36.42
2023-02-27T21:16:55.239Z,22.42
2023-02-27T21:19:26.079Z,17.63
2023-02-27T21:22:17.307Z,39.60
2023-02-27T21:24:46.919Z,30.65
2023-02-27T21:27:24.646Z,19.35
2023-02-27T21:29:53.321Z,17.35
2023-02-27T21:32:25.054Z,19.98
2023-02-27T21:35:09.259Z,15.35
2023-02-27T21:37:46.842Z,15.57
2023-02-27T21:40:21.162Z,18.70
2023-02-27T21:42:50.890Z,14.68
2023-02-27T21:45:19.754Z,26.00
2023-02-27T21:47:49.783Z,40.38
2023-02-27T21:50:40.229Z,25.15
2023-02-27T21:53:14.440Z,56.08
2023-02-27T21:55:45.806Z,22.10
2023-02-27T21:58:17.388Z,15.65
2023-02-27T22:00:50.462Z,11.07
2023-02-27T22:03:37.137Z,15.98
2023-02-27T22:06:12.599Z,14.98
2023-02-27T22:08:58.369Z,37.78
2023-02-27T22:11:51.395Z,26.85
2023-02-27T22:14:22.003Z,24.63
2023-02-27T22:17:08.275Z,38.47
2023-02-27T22:19:59.138Z,23.95
2023-02-27T22:22:35.560Z,42.85
2023-02-27T22:25:09.799Z,20.80
2023-02-27T22:27:41.919Z,34.35
2023-02-27T22:30:20.832Z,23.55
2023-02-27T22:32:49.946Z,16.75
2023-02-27T22:35:27.654Z,16.90
2023-02-27T22:38:04.192Z,20.05
2023-02-27T22:40:47.501Z,15.50
2023-02-27T22:43:28.316Z,18.10
2023-02-27T22:45:57.090Z,16.85
2023-02-27T22:48:26.335Z,17.05
2023-02-27T22:51:20.682Z,44.45
2023-02-27T22:53:56.732Z,25.33
2023-02-27T22:56:30.567Z,23.08
2023-02-27T22:59:02.284Z,17.65
2023-02-27T23:01:36.420Z,23.20
2023-02-27T23:04:10.304Z,13.93
2023-02-27T23:06:43.162Z,14.55
2023-02-27T23:09:20.238Z,15.60
2023-02-27T23:11:50.130Z,13.30
2023-02-27T23:14:21.194Z,14.00
2023-02-27T23:16:51.248Z,14.88
2023-02-27T23:19:39.131Z,22.48
2023-02-27T23:22:10.734Z,15.27
2023-02-27T23:25:23.427Z,17.67
2023-02-27T23:28:01.678Z,14.35
2023-02-27T23:30:34.339Z,12.80
2023-02-27T23:33:14.761Z,16.83
2023-02-27T23:35:59.952Z,19.63
2023-02-27T23:38:29.166Z,14.32
2023-02-27T23:41:00.393Z,14.65
2023-02-27T23:43:31.307Z,15.27
2023-02-27T23:46:08.464Z,16.23
2023-02-27T23:48:43.077Z,18.45
2023-02-27T23:51:32.801Z,19.90
2023-02-27T23:54:23.109Z,19.77
2023-02-27T23:57:03.526Z,21.30
2023-02-27T23:59:53.418Z,21.48
